Prospector, Canada
Current Conditions -  °F | °C
As of 8:10 AM on Tuesday 27 Jan 2015 (Local Time) from CYQD Reporting Station
Moderate Fog Moderate Fog  
Wind Chill: 11°   Ceiling: 200
Heat Index: 19°   Visibility: 0.37mi
Dew Point: 19°   Wind: 6mph
Humidity: 100%   Direction: 10°N
Pressure: 29.85"   Gusts: NA
Location:  52.95°N, 101.27°W
Report Text: CYQD 271410Z 01005KT 3/8SM FZFG VV002 M07/M07 A2985 RMK FG8 FROIN SLP127
Loading
Personal Weather Stations






























Interactive Weather Map New forecast layout! Learn more

10-Day Weather Forecast

Advertisements
Track Severe Weather on mobile